CMR6 weather

Camrose / St Mary's Hospital Heliport
Camrose, Alberta, Canada

Public forecast

Using degrees Celsius for public forecast. Weather courtesy of forecast.io.

METAR (pilot weather report)

Closest report is Edmonton International Airport, 32.3 nm (59.8 km) WNW. Retrieved 2019/09/16 19:00 UTC (31 minutes ago):

CYEG 161900Z 32006KT 280V340 20SM FEW024 FEW220 16/10 A2970 RMK CU1CI6 SLP065 DENSITY ALT 3300FT

TAF (pilot weather forecast)

Closest forecast is Edmonton International Airport, 32.3 nm (59.8 km) WNW. Retrieved 2019/09/16 18:39 UTC (52 minutes ago):

TAF CYEG 161738Z 1618/1718 32008KT P6SM FEW015 SCT140 BKN220 FM162100 34010KT P6SM SCT030 BKN140 FM170200 30008KT P6SM FEW040 BKN060 TEMPO 1702/1709 P6SM -SHRA FM170900 VRB03KT P6SM SCT006 OVC040 TEMPO 1709/1716 4SM -SHRA BR BKN006 OVC040 FM171600 36005KT P6SM SCT015 BKN040 RMK NXT FCST BY 162100Z